Time;durP1;ratioP1;P1;durP2;ratioP2;P2;SDS_P1;SDS_P2;PMS_P1;PMS_P2;Temp;Humidity;BMP_temperature;BMP_pressure;BME280_temperature;BME280_humidity;BME280_pressure;Samples;Min_cycle;Max_cycle;Signal;HPM_P1;HPM_P2
2022/03/03 00:00:09;;;;;;;29.42;15.40;;;-0.30;55.10;;;-1.89;40.04;95187.13;5060165;28;20596;-84
2022/03/03 00:02:40;;;;;;;29.05;15.65;;;-0.30;55.50;;;-1.98;40.57;95172.34;5040959;28;20187;-83
2022/03/03 00:05:09;;;;;;;31.17;15.75;;;-0.30;55.30;;;-1.95;40.30;95180.66;5056249;28;20227;-83
2022/03/03 00:07:36;;;;;;;26.63;15.07;;;-0.40;55.30;;;-1.99;40.23;95174.13;5039995;28;20222;-83
2022/03/03 00:10:05;;;;;;;28.85;15.52;;;-0.40;55.30;;;-1.99;40.32;95181.00;5056002;28;20234;-84
2022/03/03 00:12:33;;;;;;;30.10;15.98;;;-0.40;55.60;;;-2.03;40.18;95180.38;5056196;28;20195;-83
2022/03/03 00:15:00;;;;;;;32.20;16.63;;;-0.50;55.60;;;-2.01;41.19;95177.72;5054676;28;20257;-84
2022/03/03 00:17:28;;;;;;;31.85;16.77;;;-0.50;55.70;;;-2.01;40.60;95175.16;5039424;28;20231;-84
2022/03/03 00:19:55;;;;;;;29.98;15.90;;;-0.50;55.90;;;-2.02;40.50;95174.31;5056127;28;20322;-85
2022/03/03 00:22:22;;;;;;;26.75;14.98;;;-0.50;55.90;;;-2.04;40.61;95173.59;5055151;28;20283;-84
2022/03/03 00:24:49;;;;;;;28.25;15.73;;;-0.60;55.80;;;-2.08;40.49;95163.66;5046505;28;20622;-83
2022/03/03 00:27:16;;;;;;;30.55;16.50;;;-0.60;55.80;;;-2.11;40.84;95172.41;5055661;28;20191;-84
2022/03/03 00:29:44;;;;;;;34.08;17.73;;;-0.60;55.80;;;-2.11;40.80;95167.28;5039540;28;20240;-84
2022/03/03 00:32:11;;;;;;;34.45;18.08;;;-0.60;56.00;;;-2.11;41.03;95157.00;5055783;28;20234;-84
2022/03/03 00:34:38;;;;;;;31.63;16.70;;;-0.60;56.20;;;-2.04;40.70;95170.22;5055119;28;20272;-84
2022/03/03 00:37:05;;;;;;;29.88;16.35;;;-0.70;56.20;;;-2.10;41.00;95154.31;5054839;28;20207;-84
2022/03/03 00:39:32;;;;;;;36.63;18.00;;;-0.60;56.10;;;-2.01;41.27;95162.31;5055668;28;20238;-83
2022/03/03 00:42:00;;;;;;;34.20;19.65;;;-0.70;56.20;;;-2.00;41.97;95166.50;5051794;28;20192;-83
2022/03/03 00:44:27;;;;;;;42.83;22.60;;;-0.60;56.60;;;-1.95;43.01;95154.97;5043750;28;20215;-85
2022/03/03 00:46:54;;;;;;;45.22;22.90;;;-0.60;57.50;;;-1.79;44.19;95164.16;5044607;28;20214;-84
2022/03/03 00:49:21;;;;;;;43.53;23.48;;;-0.50;58.00;;;-1.65;43.89;95166.56;5055048;28;20226;-83
2022/03/03 00:51:48;;;;;;;40.42;22.08;;;-0.50;58.40;;;-1.49;43.85;95168.84;5071652;28;20211;-84
2022/03/03 00:54:15;;;;;;;45.13;22.58;;;-0.40;58.60;;;-1.54;43.21;95144.38;5039238;28;20219;-83
2022/03/03 00:56:42;;;;;;;39.75;21.17;;;-0.40;58.30;;;-1.32;42.83;95159.91;5054717;28;20646;-82
2022/03/03 00:59:10;;;;;;;37.30;20.35;;;-0.30;58.20;;;-1.31;42.58;95150.41;5055626;28;20317;-83
2022/03/03 01:01:37;;;;;;;34.95;19.48;;;-0.20;58.00;;;-1.24;42.51;95149.03;5039381;28;20689;-83
2022/03/03 01:04:05;;;;;;;36.70;19.60;;;-0.10;57.80;;;-1.23;42.37;95149.84;5054825;28;20223;-84
2022/03/03 01:06:32;;;;;;;33.67;18.70;;;-0.10;57.60;;;-1.24;41.67;95143.09;5054749;28;20199;-85
2022/03/03 01:08:59;;;;;;;29.50;17.17;;;0.00;57.50;;;-1.29;41.78;95141.66;5071246;28;20216;-84
2022/03/03 01:11:26;;;;;;;30.80;16.83;;;0.00;57.30;;;-1.38;41.46;95147.50;5055353;28;20646;-84
2022/03/03 01:13:53;;;;;;;29.92;17.10;;;0.00;57.10;;;-1.46;41.41;95136.94;5019002;28;20273;-84
2022/03/03 01:16:21;;;;;;;35.97;18.00;;;0.00;57.00;;;-1.54;41.63;95144.38;5033703;28;20227;-83
2022/03/03 01:18:49;;;;;;;33.00;17.90;;;-0.10;56.90;;;-1.62;41.42;95134.66;5054449;28;20211;-84
2022/03/03 01:21:16;;;;;;;35.85;17.63;;;-0.10;56.90;;;-1.81;41.58;95118.00;5061498;28;20246;-84
2022/03/03 01:23:43;;;;;;;32.28;16.63;;;-0.10;56.90;;;-1.75;41.69;95133.91;5042267;28;20716;-85
2022/03/03 01:26:10;;;;;;;30.08;15.93;;;-0.20;56.80;;;-1.84;41.30;95131.06;5054938;28;20551;-83
2022/03/03 01:28:37;;;;;;;31.83;16.20;;;-0.30;56.70;;;-1.98;42.12;95110.66;5054087;28;20212;-85
2022/03/03 01:31:04;;;;;;;33.97;17.50;;;-0.30;56.90;;;-1.87;41.82;95135.59;5055260;28;20722;-83
2022/03/03 01:33:32;;;;;;;34.55;18.33;;;-0.30;57.00;;;-2.00;42.04;95109.94;5054489;28;20218;-85
2022/03/03 01:35:59;;;;;;;33.33;18.02;;;-0.40;56.90;;;-1.87;41.98;95122.75;5055413;28;20626;-85
2022/03/03 01:38:26;;;;;;;37.85;19.83;;;-0.40;57.10;;;-1.80;42.62;95118.81;5038795;28;20231;-84
2022/03/03 01:40:54;;;;;;;39.47;21.42;;;-0.40;57.60;;;-1.68;43.01;95125.63;5055618;28;20219;-84
2022/03/03 01:43:21;;;;;;;38.35;21.15;;;-0.40;58.00;;;-1.57;43.24;95124.84;5037684;28;20313;-84
2022/03/03 01:45:48;;;;;;;41.92;21.23;;;-0.40;58.00;;;-1.43;42.85;95128.16;5038321;28;20277;-84
2022/03/03 01:48:15;;;;;;;39.53;21.52;;;-0.30;58.30;;;-1.43;43.71;95105.00;5049819;28;20762;-84
2022/03/03 01:50:42;;;;;;;39.53;20.85;;;-0.30;58.50;;;-1.24;43.10;95125.88;5038819;28;20677;-84
2022/03/03 01:53:09;;;;;;;37.88;20.30;;;-0.20;58.50;;;-1.24;42.74;95114.78;5055062;28;20277;-85
2022/03/03 01:55:37;;;;;;;34.72;18.52;;;-0.10;58.40;;;-1.20;42.52;95122.13;5054940;28;20196;-84
2022/03/03 01:58:04;;;;;;;31.63;18.35;;;-0.10;58.10;;;-1.27;42.20;95113.22;5055117;28;20223;-84
2022/03/03 02:00:32;;;;;;;32.03;17.85;;;0.00;58.00;;;-1.38;42.24;95111.47;5037802;28;20539;-84
2022/03/03 02:03:00;;;;;;;29.52;16.58;;;0.00;57.70;;;-1.49;42.22;95103.69;5071661;28;20710;-84
2022/03/03 02:05:30;;;;;;;36.65;18.70;;;0.00;57.50;;;-1.67;42.61;95086.13;5054448;28;20723;-85
2022/03/03 02:07:57;;;;;;;40.17;20.83;;;-0.10;57.50;;;-1.55;43.48;95106.72;5043738;28;20261;-85
2022/03/03 02:10:25;;;;;;;41.53;21.40;;;-0.10;58.10;;;-1.53;43.74;95107.44;5038538;28;20286;-84
2022/03/03 02:12:53;;;;;;;42.88;21.98;;;-0.10;58.40;;;-1.41;43.81;95098.00;5038240;28;20231;-84
2022/03/03 02:15:22;;;;;;;41.97;22.42;;;-0.10;58.80;;;-1.34;44.08;95100.00;5071069;28;20205;-84
2022/03/03 02:17:50;;;;;;;40.42;21.33;;;-0.10;59.00;;;-1.27;44.10;95078.97;5054137;28;20221;-84
2022/03/03 02:20:21;;;;;;;46.83;23.73;;;-0.10;60.20;;;-1.20;45.53;95080.94;5058620;28;20187;-84
2022/03/03 02:22:51;;;;;;;45.67;23.33;;;0.00;59.80;;;-1.11;45.65;95076.88;5074915;28;20548;-84
2022/03/03 02:25:19;;;;;;;43.25;22.27;;;0.00;59.90;;;-1.02;45.68;95071.03;5063188;28;20562;-84
2022/03/03 02:27:47;;;;;;;42.70;21.88;;;0.10;60.00;;;-0.98;45.74;95067.28;5058718;28;20200;-84
2022/03/03 02:30:17;;;;;;;40.47;21.40;;;0.20;60.10;;;-0.89;45.48;95065.78;5041941;28;20199;-84
2022/03/03 02:32:46;;;;;;;37.75;21.25;;;0.20;60.00;;;-0.86;45.49;95057.00;5057837;28;20222;-84
2022/03/03 02:35:14;;;;;;;40.53;20.73;;;0.20;59.90;;;-0.84;45.05;95050.78;5040828;28;20196;-83
2022/03/03 02:37:44;;;;;;;36.58;19.98;;;0.30;59.80;;;-0.83;45.31;95054.16;5074703;28;20198;-85
2022/03/03 02:40:20;;;;;;;41.88;20.73;;;0.30;60.00;;;-0.88;45.31;95035.69;5058496;28;20202;-85
2022/03/03 02:42:49;;;;;;;39.67;22.00;;;0.40;60.00;;;-0.79;45.70;95041.88;5042346;28;20198;-84
2022/03/03 02:45:17;;;;;;;42.22;21.63;;;0.40;60.10;;;-0.76;45.49;95033.91;5057571;28;20640;-84
2022/03/03 02:47:46;;;;;;;41.20;19.42;;;0.40;60.00;;;-0.77;45.46;95035.66;5058303;28;20257;-84
2022/03/03 02:50:16;;;;;;;41.03;21.27;;;0.40;59.80;;;-0.76;45.70;95034.72;5057231;28;20204;-84
2022/03/03 02:52:43;;;;;;;40.40;20.75;;;0.40;60.00;;;-0.86;45.31;95026.91;5041396;28;20286;-85
2022/03/03 02:55:12;;;;;;;41.60;21.65;;;0.50;59.90;;;-0.74;45.41;95040.59;5057225;28;20278;-84
2022/03/03 02:57:55;;;;;;;41.05;21.33;;;0.50;59.90;;;-0.75;45.89;95040.72;5074143;28;20273;-84
2022/03/03 03:00:31;;;;;;;35.67;20.23;;;0.50;60.10;;;-0.75;45.77;95028.63;5043013;28;20222;-83
2022/03/03 03:02:58;;;;;;;35.30;19.20;;;0.50;60.20;;;-0.74;45.34;95032.84;5057880;28;20297;-84
2022/03/03 03:05:26;;;;;;;36.90;19.65;;;0.50;59.90;;;-0.85;45.24;95009.72;5057039;28;20207;-84
2022/03/03 03:07:53;;;;;;;35.92;18.65;;;0.50;59.90;;;-0.76;44.77;95026.19;5057258;28;20226;-84
2022/03/03 03:10:20;;;;;;;33.72;19.25;;;0.50;59.90;;;-0.77;45.18;95021.97;5057021;28;20191;-84
2022/03/03 03:12:47;;;;;;;34.72;18.38;;;0.50;59.90;;;-0.83;45.37;95020.69;5057511;28;20251;-84
2022/03/03 03:15:15;;;;;;;35.35;18.83;;;0.50;59.90;;;-0.81;45.32;95018.81;5057245;28;20622;-84
2022/03/03 03:17:42;;;;;;;37.22;19.75;;;0.50;59.90;;;-0.90;45.94;95010.06;5057300;28;20272;-83
2022/03/03 03:20:10;;;;;;;34.13;19.17;;;0.50;60.10;;;-0.88;45.79;95020.22;5040293;28;20652;-83
2022/03/03 03:22:38;;;;;;;34.47;18.77;;;0.50;60.10;;;-0.82;45.74;95032.63;5039647;28;20196;-83
2022/03/03 03:25:11;;;;;;;36.55;19.10;;;0.50;60.20;;;-0.78;45.76;95028.06;5040375;28;20207;-84
2022/03/03 03:27:41;;;;;;;38.78;19.83;;;0.40;60.20;;;-0.80;46.26;95020.47;5072509;28;20183;-84
2022/03/03 03:30:11;;;;;;;35.75;19.08;;;0.40;61.10;;;-0.76;45.64;95027.00;5056907;28;20242;-83
2022/03/03 03:32:39;;;;;;;32.95;19.55;;;0.50;60.20;;;-0.75;45.70;95022.69;5041040;28;20223;-83
2022/03/03 03:35:07;;;;;;;34.05;18.80;;;0.50;60.20;;;-0.75;45.95;95020.09;5056797;28;20298;-83
2022/03/03 03:37:36;;;;;;;41.53;19.58;;;0.50;60.30;;;-0.75;46.05;95015.75;5040181;28;20199;-84
2022/03/03 03:40:06;;;;;;;34.78;18.35;;;0.50;61.10;;;-0.70;45.12;95039.41;5040567;28;20230;-84
2022/03/03 03:42:33;;;;;;;33.78;17.90;;;0.50;60.00;;;-0.75;45.52;95017.53;5056257;28;20200;-84
2022/03/03 03:45:01;;;;;;;33.80;18.63;;;0.50;60.00;;;-0.71;45.45;95037.78;5056959;28;20681;-84
2022/03/03 03:47:28;;;;;;;31.40;17.30;;;0.50;60.00;;;-0.70;45.27;95030.88;5072471;28;20226;-84
2022/03/03 03:49:55;;;;;;;33.17;17.50;;;0.50;59.90;;;-0.68;45.47;95023.84;5056758;28;20231;-84
2022/03/03 03:52:23;;;;;;;37.17;18.25;;;0.50;60.00;;;-0.69;45.52;95019.63;5039296;28;20241;-84
2022/03/03 03:54:50;;;;;;;33.80;18.08;;;0.50;59.90;;;-0.67;45.40;95028.88;5056746;28;20215;-85
2022/03/03 03:57:17;;;;;;;30.27;17.73;;;0.50;59.90;;;-0.67;45.21;95026.28;5056607;28;20625;-83
2022/03/03 03:59:44;;;;;;;35.53;17.90;;;0.50;59.90;;;-0.71;45.34;95022.34;5056659;28;20649;-84
2022/03/03 04:02:12;;;;;;;35.40;18.75;;;0.50;59.90;;;-0.76;45.75;95006.41;5052778;28;20207;-83
2022/03/03 04:04:39;;;;;;;37.63;18.83;;;0.50;60.00;;;-0.76;45.72;95003.81;5053109;28;20236;-83
2022/03/03 04:07:06;;;;;;;32.47;18.33;;;0.50;60.10;;;-0.70;45.31;95007.69;5036174;28;20200;-84
2022/03/03 04:09:33;;;;;;;36.20;18.70;;;0.50;59.90;;;-0.76;45.51;94990.13;5036452;28;20216;-84
2022/03/03 04:12:02;;;;;;;36.05;18.83;;;0.50;60.00;;;-0.72;45.41;95006.97;5033421;28;20215;-84
2022/03/03 04:14:29;;;;;;;36.33;18.67;;;0.60;60.00;;;-0.75;45.19;94978.91;5056446;28;20306;-84
2022/03/03 04:16:56;;;;;;;34.53;17.83;;;0.50;59.90;;;-0.77;45.29;94985.91;5056353;28;20202;-85
2022/03/03 04:19:23;;;;;;;33.90;17.85;;;0.50;59.80;;;-0.87;45.06;94981.47;5055831;28;20219;-84
2022/03/03 04:21:51;;;;;;;33.70;18.60;;;0.50;59.80;;;-0.81;45.85;94990.50;5056502;28;20265;-83
2022/03/03 04:24:18;;;;;;;34.80;18.35;;;0.50;59.90;;;-0.92;45.43;94986.19;5072897;28;20203;-84
2022/03/03 04:26:45;;;;;;;36.22;19.10;;;0.50;60.00;;;-0.87;46.00;94988.41;5039657;28;20298;-84
2022/03/03 04:29:12;;;;;;;37.72;20.85;;;0.50;60.10;;;-0.92;46.26;94981.03;5056239;28;20211;-84
2022/03/03 04:31:39;;;;;;;35.50;18.45;;;0.40;60.20;;;-0.98;45.86;94969.47;5055921;28;20215;-83
2022/03/03 04:34:06;;;;;;;33.38;18.52;;;0.40;60.30;;;-0.86;45.60;94982.31;5039494;28;20273;-85
2022/03/03 04:36:33;;;;;;;34.55;17.45;;;0.40;60.20;;;-0.93;46.00;94979.38;5072503;28;20191;-83
2022/03/03 04:39:00;;;;;;;32.15;18.27;;;0.40;60.20;;;-0.89;45.99;94978.22;5051958;28;20226;-83
2022/03/03 04:41:27;;;;;;;34.53;18.25;;;0.40;60.30;;;-0.90;46.14;94984.31;5019072;28;20245;-84
2022/03/03 04:43:54;;;;;;;33.35;18.92;;;0.40;60.30;;;-1.03;45.93;94953.53;5035684;28;20223;-83
2022/03/03 04:46:22;;;;;;;36.50;18.02;;;0.40;60.40;;;-0.91;45.62;94974.13;5052393;28;20326;-84
2022/03/03 04:48:49;;;;;;;34.45;18.15;;;0.40;60.30;;;-0.93;46.45;94978.59;5038680;28;20292;-84
2022/03/03 04:51:16;;;;;;;42.22;21.42;;;0.40;60.50;;;-0.93;46.22;94968.28;5055573;28;20179;-84
2022/03/03 04:53:43;;;;;;;35.63;18.90;;;0.40;60.50;;;-0.94;46.12;94958.91;5055348;28;20215;-84
2022/03/03 04:56:10;;;;;;;33.58;18.02;;;0.30;60.50;;;-0.91;45.96;94964.66;5056014;28;20298;-83
2022/03/03 04:58:38;;;;;;;35.80;18.95;;;0.30;60.50;;;-0.90;46.29;94970.63;5071732;28;20223;-84
2022/03/03 05:01:05;;;;;;;36.17;18.42;;;0.30;60.60;;;-0.99;46.55;94960.09;5049628;28;20252;-84
2022/03/03 05:03:33;;;;;;;36.33;18.02;;;0.30;60.50;;;-0.91;46.28;94963.84;5038144;28;20242;-83
2022/03/03 05:06:00;;;;;;;34.35;18.55;;;0.30;60.50;;;-0.93;46.30;94960.56;5038385;28;20236;-83
2022/03/03 05:08:27;;;;;;;36.67;18.40;;;0.40;60.60;;;-1.05;46.42;94936.59;5071955;28;20561;-84
2022/03/03 05:10:54;;;;;;;33.22;17.35;;;0.40;60.60;;;-0.96;46.21;94956.47;5070645;28;20645;-84
2022/03/03 05:13:21;;;;;;;31.52;17.85;;;0.30;60.60;;;-0.99;46.64;94965.25;5054614;28;20218;-84
2022/03/03 05:15:48;;;;;;;33.83;18.67;;;0.30;60.70;;;-0.99;46.57;94964.41;5038540;28;20225;-84
2022/03/03 05:18:15;;;;;;;39.17;18.27;;;0.30;61.60;;;-1.05;46.63;94954.59;5054810;28;20221;-83
2022/03/03 05:20:42;;;;;;;37.88;18.98;;;0.30;60.80;;;-1.04;46.49;94958.81;5072074;28;20215;-84
2022/03/03 05:23:09;;;;;;;32.85;18.48;;;0.30;60.80;;;-1.07;46.52;94959.88;5055327;28;20222;-84
2022/03/03 05:25:36;;;;;;;35.58;18.27;;;0.30;60.80;;;-1.04;46.44;94961.38;5038753;28;20286;-84
2022/03/03 05:28:04;;;;;;;39.67;19.95;;;0.20;60.60;;;-1.06;46.49;94961.53;5038401;28;20225;-84
2022/03/03 05:30:31;;;;;;;36.10;18.50;;;0.20;60.70;;;-1.12;46.30;94946.56;5054068;28;20195;-83
2022/03/03 05:32:59;;;;;;;36.63;19.55;;;0.20;60.70;;;-1.06;46.65;94955.53;5054461;28;20305;-84
2022/03/03 05:35:26;;;;;;;40.47;19.75;;;0.20;60.80;;;-1.18;46.69;94934.97;5072024;28;20214;-84
2022/03/03 05:37:53;;;;;;;39.42;20.73;;;0.20;60.90;;;-1.07;46.66;94952.16;5055112;28;20195;-84
2022/03/03 05:40:21;;;;;;;41.15;21.13;;;0.20;60.80;;;-1.07;46.55;94951.34;5054452;28;20214;-83
2022/03/03 05:42:48;;;;;;;39.10;20.83;;;0.20;60.90;;;-1.07;46.45;94953.91;5070593;28;20197;-84
2022/03/03 05:45:15;;;;;;;41.15;20.83;;;0.20;60.90;;;-1.04;46.45;94940.78;5038595;28;20203;-85
2022/03/03 05:47:45;;;;;;;38.30;20.42;;;0.20;60.90;;;-1.02;46.37;94944.06;5054460;28;20192;-83
2022/03/03 05:50:12;;;;;;;44.10;22.35;;;0.20;60.90;;;-1.00;46.64;94942.19;5071779;28;20215;-84
2022/03/03 05:52:39;;;;;;;40.92;22.13;;;0.20;60.90;;;-1.01;46.29;94945.72;5039929;28;20309;-84
2022/03/03 05:55:07;;;;;;;39.88;20.50;;;0.20;60.80;;;-0.97;46.01;94945.34;5058853;28;20219;-84
2022/03/03 05:57:44;;;;;;;41.10;20.73;;;0.20;60.80;;;-0.97;46.20;94939.38;5042252;28;20214;-84
2022/03/03 06:00:17;;;;;;;38.08;19.25;;;0.30;61.00;;;-0.96;46.13;94948.75;5058857;28;20301;-84
2022/03/03 06:02:52;;;;;;;37.65;18.83;;;0.20;60.80;;;-0.95;45.60;94939.25;5058884;28;20195;-83
2022/03/03 06:05:28;;;;;;;33.55;18.55;;;0.20;60.70;;;-0.92;45.71;94947.56;5075803;28;20282;-84
2022/03/03 06:08:06;;;;;;;34.83;18.90;;;0.30;60.90;;;-0.95;45.97;94944.41;5059012;28;20195;-84
2022/03/03 06:10:35;;;;;;;36.95;20.00;;;0.30;60.80;;;-0.86;45.65;94951.41;5075777;28;20195;-85
2022/03/03 06:13:23;;;;;;;34.35;18.83;;;0.30;60.70;;;-0.83;45.70;94952.00;5075165;28;20245;-84
2022/03/03 06:15:52;;;;;;;35.88;18.10;;;0.30;61.00;;;-0.79;45.68;94955.16;5075384;28;20229;-84
2022/03/03 06:18:28;;;;;;;34.75;18.45;;;0.30;60.70;;;-0.76;45.59;94946.34;5075343;28;20219;-84
2022/03/03 06:20:55;;;;;;;34.60;18.67;;;0.30;60.80;;;-0.67;45.56;94955.94;5042129;28;20332;-85
2022/03/03 06:23:23;;;;;;;30.95;17.52;;;0.40;60.90;;;-0.64;45.58;94953.09;5075066;28;20301;-84
2022/03/03 06:26:07;;;;;;;33.83;18.35;;;0.40;60.90;;;-0.52;45.70;94961.63;5075401;28;20245;-84
2022/03/03 06:28:34;;;;;;;29.52;16.23;;;0.40;61.10;;;-0.53;45.27;94953.06;5075068;28;20288;-84
2022/03/03 06:31:04;;;;;;;33.08;17.08;;;0.50;60.90;;;-0.46;45.34;94955.16;5058694;28;20196;-84
2022/03/03 06:33:31;;;;;;;28.63;16.90;;;0.50;60.90;;;-0.29;45.26;94969.25;5042135;28;20497;-84
2022/03/03 06:35:58;;;;;;;30.83;17.05;;;0.60;60.90;;;-0.23;45.42;94969.59;5058647;28;20214;-85
2022/03/03 06:38:26;;;;;;;28.60;16.30;;;0.60;60.90;;;-0.14;45.39;94970.59;5041654;28;20306;-85
2022/03/03 06:40:57;;;;;;;34.03;17.35;;;0.70;60.90;;;-0.01;45.23;94962.69;5057908;28;20207;-85
2022/03/03 06:43:29;;;;;;;35.30;18.05;;;0.80;61.00;;;0.11;45.13;94955.69;5059147;28;20215;-85
2022/03/03 06:45:57;;;;;;;34.95;19.00;;;0.90;61.10;;;0.23;45.26;94961.59;5074983;28;20226;-85
2022/03/03 06:48:25;;;;;;;35.80;18.10;;;1.00;61.00;;;0.27;44.83;94950.09;5041653;28;20704;-85
2022/03/03 06:50:54;;;;;;;31.55;17.90;;;1.10;61.00;;;0.31;44.75;94944.53;5041847;28;20210;-84
2022/03/03 06:53:36;;;;;;;31.50;17.05;;;1.10;61.00;;;0.42;44.75;94953.97;5076183;28;20225;-85
2022/03/03 06:56:09;;;;;;;32.80;17.92;;;1.20;60.90;;;0.45;44.44;94950.31;5059157;28;20199;-85
2022/03/03 06:58:37;;;;;;;40.47;19.85;;;1.30;60.90;;;0.55;45.13;94961.53;5058495;28;20216;-85
2022/03/03 07:01:07;;;;;;;37.60;19.73;;;1.40;60.80;;;0.63;44.80;94959.13;5075213;28;20200;-85
2022/03/03 07:03:36;;;;;;;38.92;20.15;;;1.40;60.70;;;0.69;44.82;94951.78;5041760;28;20318;-85
2022/03/03 07:06:04;;;;;;;34.83;19.55;;;1.50;60.70;;;0.75;44.64;94959.81;5057986;28;20205;-85
2022/03/03 07:08:33;;;;;;;32.13;18.52;;;1.50;60.70;;;0.80;44.69;94956.84;5058363;28;20265;-85
2022/03/03 07:11:01;;;;;;;36.22;20.33;;;1.60;60.70;;;0.91;44.71;94953.38;5074660;28;20298;-85
2022/03/03 07:13:28;;;;;;;36.85;18.75;;;1.70;60.70;;;0.94;44.66;94947.91;5057971;28;20316;-84
2022/03/03 07:16:31;;;;;;;37.55;19.38;;;1.70;61.60;;;1.05;44.41;94954.75;5042962;28;20309;-85
2022/03/03 07:19:02;;;;;;;33.60;19.30;;;1.80;60.80;;;1.19;44.47;94954.38;5041303;28;20261;-85
2022/03/03 07:21:42;;;;;;;32.38;17.80;;;1.80;60.70;;;1.30;44.19;94958.63;5074852;28;20214;-85
2022/03/03 07:24:32;;;;;;;37.22;18.80;;;2.00;60.80;;;1.36;44.07;94950.31;5057416;28;20234;-85
2022/03/03 07:27:07;;;;;;;33.80;18.40;;;2.00;60.70;;;1.48;44.05;94961.38;5074188;28;20196;-85
2022/03/03 07:29:36;;;;;;;35.83;19.05;;;2.10;60.50;;;1.53;44.18;94964.34;5057441;28;20596;-85
2022/03/03 07:32:08;;;;;;;37.25;18.85;;;2.20;60.60;;;1.66;43.95;94958.09;5057612;28;20202;-85
2022/03/03 07:34:38;;;;;;;33.78;18.40;;;2.30;60.60;;;1.78;43.77;94958.78;5073801;28;20223;-85
2022/03/03 07:37:15;;;;;;;31.30;17.90;;;2.30;60.50;;;1.81;43.71;94943.00;5057293;28;20187;-85
2022/03/03 07:39:45;;;;;;;30.23;17.85;;;2.40;60.60;;;1.92;43.94;94953.22;5057609;28;20688;-85
2022/03/03 07:42:17;;;;;;;31.25;17.08;;;2.50;60.50;;;1.95;43.55;94940.00;5057220;28;20626;-84
2022/03/03 07:44:46;;;;;;;31.00;17.08;;;2.60;60.40;;;1.98;43.71;94931.97;5073998;28;20211;-85
2022/03/03 07:47:14;;;;;;;29.27;17.73;;;2.70;60.30;;;2.05;43.54;94945.16;5057017;28;20657;-84
2022/03/03 07:49:42;;;;;;;30.90;17.23;;;2.80;60.20;;;2.11;43.61;94941.19;5057055;28;20262;-85
2022/03/03 07:52:09;;;;;;;26.00;15.75;;;2.80;60.20;;;2.15;43.41;94942.53;5073774;28;20191;-86
2022/03/03 07:54:37;;;;;;;31.85;17.65;;;2.90;60.20;;;2.20;43.72;94945.56;5040514;28;20227;-85
2022/03/03 07:57:10;;;;;;;31.80;17.77;;;2.90;60.10;;;2.23;43.38;94938.34;5057046;28;20401;-86
2022/03/03 07:59:45;;;;;;;32.35;18.60;;;3.00;60.20;;;2.26;43.46;94947.59;5074691;28;20293;-85
2022/03/03 08:02:21;;;;;;;32.20;17.88;;;3.00;60.10;;;2.30;43.29;94951.50;5057043;28;20183;-86
2022/03/03 08:04:51;;;;;;;29.02;17.00;;;3.00;60.00;;;2.37;43.16;94946.63;5040037;28;20214;-86
2022/03/03 08:07:19;;;;;;;31.05;17.58;;;3.10;60.10;;;2.43;42.88;94945.22;5045851;28;20196;-86
2022/03/03 08:09:48;;;;;;;33.97;18.17;;;3.10;60.00;;;2.45;43.24;94930.38;5049490;28;20223;-86
2022/03/03 08:12:23;;;;;;;37.78;20.02;;;3.20;60.00;;;2.56;43.06;94941.38;5041413;28;20222;-87
2022/03/03 08:14:53;;;;;;;34.33;19.70;;;3.20;60.00;;;2.45;43.26;94905.28;5040156;28;20231;-87
2022/03/03 08:17:23;;;;;;;31.77;17.20;;;3.30;60.00;;;2.61;43.05;94917.63;5052227;28;20206;-87
2022/03/03 08:19:55;;;;;;;31.42;18.08;;;3.30;60.00;;;2.64;42.98;94912.16;5036808;28;20306;-84
2022/03/03 08:22:25;;;;;;;32.42;18.52;;;3.30;60.00;;;2.87;43.08;94929.94;5053561;28;20693;-85
2022/03/03 08:24:55;;;;;;;34.53;18.98;;;3.40;60.00;;;2.95;42.80;94926.63;5036815;28;20345;-85
2022/03/03 08:27:25;;;;;;;30.50;16.95;;;3.60;60.20;;;3.04;42.74;94923.16;5037359;28;20200;-87
2022/03/03 08:29:54;;;;;;;34.88;19.48;;;3.50;60.10;;;3.09;42.70;94915.78;5053044;28;20235;-86
2022/03/03 08:32:23;;;;;;;36.25;19.17;;;3.60;60.10;;;3.14;42.76;94910.16;5036221;28;20419;-87
2022/03/03 08:35:17;;;;;;;36.22;19.42;;;3.70;60.10;;;3.24;42.88;94910.91;5048941;28;20570;-86
2022/03/03 08:37:55;;;;;;;34.45;19.23;;;3.80;60.00;;;3.36;42.48;94919.28;5047816;28;20288;-86
2022/03/03 08:40:24;;;;;;;35.00;19.52;;;3.80;59.90;;;3.40;42.64;94905.06;5056394;28;20614;-87
2022/03/03 08:42:56;;;;;;;36.45;19.27;;;4.00;59.90;;;3.45;42.36;94899.44;5039634;28;20202;-86
2022/03/03 08:45:28;;;;;;;36.60;20.63;;;4.00;59.80;;;3.50;42.16;94892.03;5056252;28;20222;-86
2022/03/03 08:48:02;;;;;;;36.72;19.33;;;4.10;59.80;;;3.67;42.32;94895.56;5055520;28;20198;-85
2022/03/03 08:50:33;;;;;;;35.67;20.98;;;4.20;59.80;;;3.72;42.07;94890.75;5056260;28;20194;-86
2022/03/03 08:53:03;;;;;;;36.10;20.25;;;4.20;59.60;;;3.81;42.29;94889.84;5056167;28;22037;-86
2022/03/03 08:55:32;;;;;;;37.40;19.50;;;4.30;59.70;;;3.88;41.77;94894.44;5038375;28;20721;-85
2022/03/03 08:58:00;;;;;;;34.47;19.73;;;4.40;59.80;;;3.82;42.12;94867.31;5049541;28;20208;-85
2022/03/03 09:00:28;;;;;;;35.60;19.63;;;4.40;59.70;;;4.03;41.93;94882.56;5036200;28;20192;-86
2022/03/03 09:02:58;;;;;;;35.22;18.48;;;4.50;59.60;;;4.11;41.87;94881.78;5024452;28;20195;-85
2022/03/03 09:05:26;;;;;;;33.78;19.92;;;4.50;59.60;;;4.17;41.75;94878.56;5038597;28;20203;-85
2022/03/03 09:07:53;;;;;;;34.50;20.42;;;4.60;59.50;;;4.26;42.01;94880.25;5055213;28;20205;-85
2022/03/03 09:10:21;;;;;;;31.33;17.63;;;4.70;59.60;;;4.36;42.01;94877.56;5072011;28;20203;-86
2022/03/03 09:12:48;;;;;;;29.52;17.95;;;4.80;60.70;;;4.46;41.81;94878.25;5063933;28;20219;-86
2022/03/03 09:15:16;;;;;;;30.95;19.00;;;4.80;59.60;;;4.54;41.77;94868.88;5054300;28;20567;-86
2022/03/03 09:17:44;;;;;;;28.67;16.92;;;4.90;59.50;;;4.64;41.78;94866.97;5038747;28;20203;-86
2022/03/03 09:20:16;;;;;;;33.28;17.77;;;5.00;60.60;;;4.72;41.93;94859.19;5039053;28;20407;-86
2022/03/03 09:22:46;;;;;;;30.95;17.80;;;5.10;59.60;;;4.80;41.48;94859.25;5038450;28;20213;-86
2022/03/03 09:25:14;;;;;;;31.75;19.08;;;5.10;59.50;;;4.89;41.55;94865.28;5039028;28;20649;-85
2022/03/03 09:27:42;;;;;;;33.78;20.23;;;5.20;59.40;;;4.97;41.39;94870.50;5038263;28;20665;-85
2022/03/03 09:30:10;;;;;;;37.42;21.55;;;5.30;59.10;;;5.03;40.79;94852.63;5055344;28;20208;-86
2022/03/03 09:32:38;;;;;;;31.38;19.30;;;5.30;58.90;;;5.06;41.25;94852.34;5054566;28;20245;-86
2022/03/03 09:35:06;;;;;;;36.75;20.83;;;5.40;58.80;;;5.10;40.79;94851.88;5054349;28;20776;-86
2022/03/03 09:37:34;;;;;;;34.15;18.70;;;5.50;58.60;;;5.19;40.70;94857.88;5037743;28;20646;-85
2022/03/03 09:40:03;;;;;;;29.85;18.95;;;5.60;58.70;;;5.17;40.80;94835.63;5054900;28;20312;-86
2022/03/03 09:42:34;;;;;;;32.45;19.67;;;5.60;58.60;;;5.26;40.65;94837.25;5055262;28;20199;-86
2022/03/03 09:45:08;;;;;;;32.92;18.77;;;5.70;58.40;;;5.27;40.61;94828.47;5038522;28;20219;-86
2022/03/03 09:47:37;;;;;;;34.50;20.98;;;5.80;58.60;;;5.43;40.22;94841.50;5054408;28;20198;-86
2022/03/03 09:50:07;;;;;;;37.15;19.25;;;5.80;58.00;;;5.47;40.57;94839.41;5035272;28;20224;-86
2022/03/03 09:52:35;;;;;;;30.25;17.92;;;5.90;58.20;;;5.51;40.46;94827.69;5019383;28;20210;-86
2022/03/03 09:55:05;;;;;;;32.25;18.52;;;5.90;58.20;;;5.55;40.10;94815.97;5029722;28;20219;-86
2022/03/03 09:57:33;;;;;;;32.15;17.95;;;6.00;58.20;;;5.70;40.21;94829.16;5070706;28;20222;-85
2022/03/03 10:00:03;;;;;;;29.65;17.25;;;6.00;58.10;;;5.85;40.59;94847.50;5042053;28;20230;-86
2022/03/03 10:03:10;;;;;;;29.52;17.58;;;6.10;58.20;;;5.93;40.34;94846.69;5056057;28;20657;-86
2022/03/03 10:05:48;;;;;;;29.20;16.38;;;6.20;57.90;;;6.03;39.95;94852.56;5045822;28;20206;-86
2022/03/03 10:08:22;;;;;;;26.88;15.73;;;6.30;57.70;;;6.11;39.80;94849.13;5055012;28;20310;-86
2022/03/03 10:10:55;;;;;;;30.30;17.90;;;6.40;57.70;;;6.20;39.10;94849.94;5066148;28;20193;-86
2022/03/03 10:13:24;;;;;;;27.92;16.98;;;6.40;57.20;;;6.21;39.25;94843.75;5054935;28;20231;-86
2022/03/03 10:15:55;;;;;;;30.80;18.17;;;6.50;57.20;;;6.33;39.05;94845.00;5053774;28;20708;-86
2022/03/03 10:18:24;;;;;;;31.05;18.05;;;6.60;57.10;;;6.43;39.05;94844.03;5055208;28;20227;-86
2022/03/03 10:21:00;;;;;;;32.30;19.27;;;6.70;56.80;;;6.41;38.43;94839.78;5037871;28;20187;-86